Time;durP1;ratioP1;P1;durP2;ratioP2;P2;SDS_P1;SDS_P2;PMS_P1;PMS_P2;Temp;Humidity;BMP_temperature;BMP_pressure;BME280_temperature;BME280_humidity;BME280_pressure;Samples;Min_cycle;Max_cycle;Signal;HPM_P1;HPM_P2
2022/08/08 00:02:05;;;;;;;4.40;3.77;;;;;;;;;;5134331;28;20430;-64
2022/08/08 00:04:35;;;;;;;4.70;4.17;;;;;;;;;;5133961;28;20528;-66
2022/08/08 00:07:05;;;;;;;6.40;3.80;;;;;;;;;;5134550;28;20441;-63
2022/08/08 00:09:38;;;;;;;5.37;4.10;;;;;;;;;;5133748;28;20463;-64
2022/08/08 00:12:10;;;;;;;4.13;3.73;;;;;;;;;;5133705;28;20904;-66
2022/08/08 00:14:46;;;;;;;3.73;3.40;;;;;;;;;;5133857;28;20473;-64
2022/08/08 00:17:15;;;;;;;6.73;4.07;;;;;;;;;;5134009;28;20487;-64
2022/08/08 00:19:44;;;;;;;7.63;3.80;;;;;;;;;;5134292;28;20478;-64
2022/08/08 00:22:14;;;;;;;4.33;3.93;;;;;;;;;;5134815;27;20441;-64
2022/08/08 00:24:43;;;;;;;5.47;4.40;;;;;;;;;;5137760;27;20516;-63
2022/08/08 00:27:12;;;;;;;5.47;5.00;;;;;;;;;;5137451;27;20478;-64
2022/08/08 00:29:43;;;;;;;4.60;4.20;;;;;;;;;;5138292;27;20525;-63
2022/08/08 00:32:14;;;;;;;4.57;4.17;;;;;;;;;;5137049;27;20517;-65
2022/08/08 00:37:40;;;;;;;4.80;4.40;;;;;;;;;;5129847;27;20418;-63
2022/08/08 00:40:20;;;;;;;5.63;4.50;;;;;;;;;;5137433;27;20950;-64
2022/08/08 00:42:59;;;;;;;5.57;5.07;;;;;;;;;;5137748;27;20446;-63
2022/08/08 00:45:43;;;;;;;4.50;4.10;;;;;;;;;;5137542;27;20460;-64
2022/08/08 00:48:32;;;;;;;4.67;3.90;;;;;;;;;;5136905;27;20919;-63
2022/08/08 00:51:30;;;;;;;5.00;4.17;;;;;;;;;;5137191;27;20465;-64
2022/08/08 00:54:10;;;;;;;4.40;4.10;;;;;;;;;;5137119;27;20509;-64
2022/08/08 00:56:52;;;;;;;4.67;4.27;;;;;;;;;;5136637;27;20426;-64
2022/08/08 00:59:45;;;;;;;5.07;4.00;;;;;;;;;;5136993;27;20556;-64
2022/08/08 01:02:23;;;;;;;5.40;4.90;;;;;;;;;;5136580;27;20907;-64
2022/08/08 01:05:08;;;;;;;5.63;4.60;;;;;;;;;;5136891;27;20512;-64
2022/08/08 01:07:52;;;;;;;8.00;4.80;;;;;;;;;;5136423;27;20520;-63
2022/08/08 01:10:34;;;;;;;7.10;5.40;;;;;;;;;;5136891;27;20441;-64
2022/08/08 01:13:16;;;;;;;4.83;4.43;;;;;;;;;;5136831;27;20435;-64
2022/08/08 01:16:02;;;;;;;6.80;5.40;;;;;;;;;;5133964;27;20484;-64
2022/08/08 01:18:47;;;;;;;4.73;4.30;;;;;;;;;;5137080;27;20461;-64
2022/08/08 01:21:20;;;;;;;6.60;5.90;;;;;;;;;;5136881;27;20509;-64
2022/08/08 01:24:14;;;;;;;7.70;6.30;;;;;;;;;;5136184;27;20976;-64
2022/08/08 01:26:59;;;;;;;6.13;4.70;;;;;;;;;;5088189;27;20450;-64
2022/08/08 01:29:35;;;;;;;6.67;5.00;;;;;;;;;;5136367;27;20528;-64
2022/08/08 01:32:21;;;;;;;6.87;6.17;;;;;;;;;;5136453;27;20426;-63
2022/08/08 01:35:05;;;;;;;6.40;5.80;;;;;;;;;;5136675;27;20446;-63
2022/08/08 01:37:50;;;;;;;6.40;5.80;;;;;;;;;;5136638;27;20418;-64
2022/08/08 01:40:24;;;;;;;6.03;5.43;;;;;;;;;;5136892;27;20481;-63
2022/08/08 01:42:54;;;;;;;8.33;5.87;;;;;;;;;;5136183;27;20436;-63
2022/08/08 01:45:41;;;;;;;7.77;5.97;;;;;;;;;;5135957;27;20858;-63
2022/08/08 01:48:11;;;;;;;6.83;6.23;;;;;;;;;;5135968;27;20454;-64
2022/08/08 01:50:54;;;;;;;6.57;5.80;;;;;;;;;;5135991;27;20512;-64
2022/08/08 01:53:32;;;;;;;6.30;5.70;;;;;;;;;;5136494;27;20433;-64
2022/08/08 01:56:01;;;;;;;7.17;6.47;;;;;;;;;;5135536;27;20429;-64
2022/08/08 01:58:34;;;;;;;7.67;6.20;;;;;;;;;;5135682;27;20440;-64
2022/08/08 02:01:10;;;;;;;8.70;6.20;;;;;;;;;;5135406;27;20960;-64
2022/08/08 02:03:44;;;;;;;7.67;6.07;;;;;;;;;;5136508;27;20434;-63
2022/08/08 02:06:18;;;;;;;6.63;6.03;;;;;;;;;;5135873;27;20437;-64
2022/08/08 02:08:49;;;;;;;10.07;5.97;;;;;;;;;;5135901;27;20438;-64
2022/08/08 02:11:23;;;;;;;10.17;6.60;;;;;;;;;;5135906;27;20432;-64
2022/08/08 02:13:54;;;;;;;6.73;5.57;;;;;;;;;;5135206;27;20863;-64
2022/08/08 02:16:24;;;;;;;9.83;6.90;;;;;;;;;;5135899;27;20445;-64
2022/08/08 02:18:54;;;;;;;10.80;7.43;;;;;;;;;;5135442;27;20484;-63
2022/08/08 02:24:13;;;;;;;6.93;6.33;;;;;;;;;;5135169;27;20436;-64
2022/08/08 02:26:46;;;;;;;8.70;6.57;;;;;;;;;;5135043;27;20433;-64
2022/08/08 02:29:28;;;;;;;9.83;7.07;;;;;;;;;;5135346;27;20435;-63
2022/08/08 02:32:03;;;;;;;8.50;7.60;;;;;;;;;;5118378;27;20592;-64
2022/08/08 02:34:38;;;;;;;7.77;6.97;;;;;;;;;;5135227;27;20465;-64
2022/08/08 02:37:14;;;;;;;9.33;7.00;;;;;;;;;;5134684;27;20429;-64
2022/08/08 02:39:52;;;;;;;7.80;6.93;;;;;;;;;;5134960;27;20502;-63
2022/08/08 02:42:49;;;;;;;10.07;6.37;;;;;;;;;;5135098;27;20830;-64
2022/08/08 02:45:37;;;;;;;9.87;6.70;;;;;;;;;;5051191;28;20896;-63
2022/08/08 02:48:22;;;;;;;8.60;7.80;;;;;;;;;;5127818;27;20429;-64
2022/08/08 02:51:22;;;;;;;10.27;8.10;;;;;;;;;;5134919;27;20517;-63
2022/08/08 02:54:07;;;;;;;7.43;6.47;;;;;;;;;;5134887;27;20836;-64
2022/08/08 02:56:52;;;;;;;8.77;7.50;;;;;;;;;;5134481;27;20482;-64
2022/08/08 02:59:40;;;;;;;12.47;7.77;;;;;;;;;;5134838;27;20542;-64
2022/08/08 03:02:25;;;;;;;8.53;7.63;;;;;;;;;;5134278;27;20510;-64
2022/08/08 03:05:16;;;;;;;8.30;6.93;;;;;;;;;;5134318;27;20520;-63
2022/08/08 03:08:03;;;;;;;8.33;7.43;;;;;;;;;;5114294;27;20521;-64
2022/08/08 03:10:42;;;;;;;8.10;7.23;;;;;;;;;;5134625;27;20436;-64
2022/08/08 03:13:24;;;;;;;8.73;6.70;;;;;;;;;;5134519;27;20508;-63
2022/08/08 03:16:01;;;;;;;9.40;6.80;;;;;;;;;;5134207;27;20518;-63
2022/08/08 03:18:32;;;;;;;11.90;8.03;;;;;;;;;;5134749;28;20512;-63
2022/08/08 03:21:00;;;;;;;9.60;7.77;;;;;;;;;;5134085;28;20552;-63
2022/08/08 03:23:29;;;;;;;9.50;7.73;;;;;;;;;;5134494;28;20438;-63
2022/08/08 03:25:57;;;;;;;9.77;7.53;;;;;;;;;;5134309;28;20433;-63
2022/08/08 03:28:28;;;;;;;8.70;7.40;;;;;;;;;;5134475;28;20438;-64
2022/08/08 03:30:55;;;;;;;9.40;8.40;;;;;;;;;;5134453;28;20513;-63
2022/08/08 03:33:21;;;;;;;12.90;8.33;;;;;;;;;;5133976;28;20533;-63
2022/08/08 03:35:49;;;;;;;9.73;7.97;;;;;;;;;;5134491;28;20444;-63
2022/08/08 03:38:17;;;;;;;10.10;8.00;;;;;;;;;;5134145;28;20835;-63
2022/08/08 03:40:51;;;;;;;10.23;8.10;;;;;;;;;;5133872;28;20465;-64
2022/08/08 03:43:18;;;;;;;10.57;8.03;;;;;;;;;;5134676;28;20525;-64
2022/08/08 03:45:46;;;;;;;9.30;7.80;;;;;;;;;;5134920;28;20445;-63
2022/08/08 03:48:13;;;;;;;11.67;8.27;;;;;;;;;;5134109;28;20533;-63
2022/08/08 03:50:47;;;;;;;13.43;8.90;;;;;;;;;;5134124;28;20874;-63
2022/08/08 03:53:15;;;;;;;9.80;8.80;;;;;;;;;;5134439;28;20440;-64
2022/08/08 03:55:43;;;;;;;14.87;9.70;;;;;;;;;;5133758;28;20529;-65
2022/08/08 03:58:17;;;;;;;9.87;8.03;;;;;;;;;;5136379;27;20442;-64
2022/08/08 04:00:49;;;;;;;9.93;8.90;;;;;;;;;;5136955;27;21008;-64
2022/08/08 04:03:16;;;;;;;10.40;8.40;;;;;;;;;;5138082;27;20439;-64
2022/08/08 04:05:44;;;;;;;12.50;8.30;;;;;;;;;;5137626;27;20520;-63
2022/08/08 04:08:16;;;;;;;9.50;8.47;;;;;;;;;;5137519;27;20529;-65
2022/08/08 04:10:46;;;;;;;11.90;8.90;;;;;;;;;;5137638;27;20513;-64
2022/08/08 04:13:15;;;;;;;10.97;8.83;;;;;;;;;;5137651;27;20537;-64
2022/08/08 04:15:42;;;;;;;10.50;8.80;;;;;;;;;;5137832;27;20563;-64
2022/08/08 04:18:10;;;;;;;9.40;8.37;;;;;;;;;;5137628;27;20482;-64
2022/08/08 04:20:37;;;;;;;10.67;7.80;;;;;;;;;;5137584;27;20513;-64
2022/08/08 04:23:04;;;;;;;10.30;9.30;;;;;;;;;;5138274;27;20533;-65
2022/08/08 04:25:32;;;;;;;9.20;8.27;;;;;;;;;;5137627;27;20444;-64
2022/08/08 04:27:59;;;;;;;9.80;8.80;;;;;;;;;;5137560;27;20873;-64
2022/08/08 04:30:28;;;;;;;12.57;8.83;;;;;;;;;;5137286;27;20448;-64
2022/08/08 04:32:55;;;;;;;12.07;9.50;;;;;;;;;;5137461;27;20545;-64
2022/08/08 04:35:22;;;;;;;11.70;9.03;;;;;;;;;;5136999;27;20533;-63
2022/08/08 04:37:49;;;;;;;11.43;9.53;;;;;;;;;;5137307;27;20517;-63
2022/08/08 04:40:17;;;;;;;10.70;9.00;;;;;;;;;;5137179;27;20474;-64
2022/08/08 04:42:44;;;;;;;10.73;8.80;;;;;;;;;;5137380;27;20911;-64
2022/08/08 04:45:11;;;;;;;12.33;10.30;;;;;;;;;;5136944;27;20478;-64
2022/08/08 04:47:40;;;;;;;10.90;9.20;;;;;;;;;;5137137;27;20441;-63
2022/08/08 04:50:08;;;;;;;11.20;9.07;;;;;;;;;;5136705;27;20437;-63
2022/08/08 04:52:35;;;;;;;10.10;8.87;;;;;;;;;;5136712;27;20533;-63
2022/08/08 04:55:02;;;;;;;12.57;8.50;;;;;;;;;;5137164;27;20526;-64
2022/08/08 04:57:29;;;;;;;10.47;9.37;;;;;;;;;;5136980;27;20528;-64
2022/08/08 04:59:57;;;;;;;12.77;8.60;;;;;;;;;;5136866;27;20570;-64
2022/08/08 05:02:24;;;;;;;9.90;8.90;;;;;;;;;;5136524;27;20533;-64
2022/08/08 05:04:52;;;;;;;10.30;9.27;;;;;;;;;;5136738;27;20513;-64
2022/08/08 05:07:20;;;;;;;10.33;9.00;;;;;;;;;;5136763;27;20446;-64
2022/08/08 05:09:47;;;;;;;10.97;9.87;;;;;;;;;;5136064;27;20521;-64
2022/08/08 05:12:14;;;;;;;14.53;9.30;;;;;;;;;;5136686;27;20525;-63
2022/08/08 05:14:41;;;;;;;11.73;10.30;;;;;;;;;;5136092;27;20474;-63
2022/08/08 05:17:08;;;;;;;14.83;10.10;;;;;;;;;;5136283;27;20441;-63
2022/08/08 05:19:36;;;;;;;10.70;9.60;;;;;;;;;;5136399;27;20878;-63
2022/08/08 05:22:05;;;;;;;11.23;8.40;;;;;;;;;;5136167;27;20430;-64
2022/08/08 05:24:33;;;;;;;11.73;9.87;;;;;;;;;;5136069;27;20473;-65
2022/08/08 05:27:00;;;;;;;12.80;10.80;;;;;;;;;;5136321;27;20438;-65
2022/08/08 05:29:27;;;;;;;14.07;8.80;;;;;;;;;;5136262;27;20871;-64
2022/08/08 05:31:54;;;;;;;9.80;8.67;;;;;;;;;;5136233;27;20460;-65
2022/08/08 05:34:26;;;;;;;13.20;9.30;;;;;;;;;;5136572;27;20438;-65
2022/08/08 05:36:54;;;;;;;10.77;9.60;;;;;;;;;;5136661;27;21003;-65
2022/08/08 05:39:23;;;;;;;12.43;8.97;;;;;;;;;;5135701;27;20434;-65
2022/08/08 05:41:51;;;;;;;18.63;10.27;;;;;;;;;;5136082;27;20479;-65
2022/08/08 05:44:21;;;;;;;12.27;9.67;;;;;;;;;;5135930;27;20541;-65
2022/08/08 05:46:50;;;;;;;13.03;9.70;;;;;;;;;;5136333;27;20478;-65
2022/08/08 05:49:17;;;;;;;12.33;9.50;;;;;;;;;;5135829;27;20529;-65
2022/08/08 05:51:45;;;;;;;12.50;9.37;;;;;;;;;;5135869;27;20615;-64
2022/08/08 05:54:12;;;;;;;10.23;9.10;;;;;;;;;;5136035;27;20444;-64
2022/08/08 05:56:41;;;;;;;10.80;8.80;;;;;;;;;;5135751;27;20444;-65
2022/08/08 05:59:12;;;;;;;10.03;8.67;;;;;;;;;;5135900;27;20449;-66
2022/08/08 06:01:41;;;;;;;14.33;9.47;;;;;;;;;;5135486;27;20501;-66
2022/08/08 06:04:10;;;;;;;10.00;8.93;;;;;;;;;;5135631;27;20449;-65
2022/08/08 06:06:39;;;;;;;9.63;8.60;;;;;;;;;;5135180;27;20448;-65
2022/08/08 06:09:07;;;;;;;12.80;8.20;;;;;;;;;;5135259;27;20440;-65
2022/08/08 06:11:34;;;;;;;8.90;8.00;;;;;;;;;;5135535;27;20486;-65
2022/08/08 06:14:04;;;;;;;8.73;7.83;;;;;;;;;;5135173;27;20465;-64
2022/08/08 06:16:32;;;;;;;11.93;9.10;;;;;;;;;;5135126;27;20448;-65
2022/08/08 06:19:01;;;;;;;12.60;10.07;;;;;;;;;;5134960;27;20438;-65
2022/08/08 06:21:29;;;;;;;9.80;8.80;;;;;;;;;;5134980;27;20473;-65
2022/08/08 06:23:56;;;;;;;10.30;7.90;;;;;;;;;;5135337;27;20439;-65
2022/08/08 06:26:25;;;;;;;9.00;7.50;;;;;;;;;;5134849;27;20430;-65
2022/08/08 06:28:54;;;;;;;10.33;9.33;;;;;;;;;;5135582;27;20525;-65
2022/08/08 06:31:23;;;;;;;15.30;9.37;;;;;;;;;;5134994;27;20429;-65
2022/08/08 06:33:52;;;;;;;8.83;7.53;;;;;;;;;;5135524;27;20487;-65
2022/08/08 06:36:21;;;;;;;9.40;7.27;;;;;;;;;;5134977;27;20867;-65
2022/08/08 06:38:50;;;;;;;11.73;8.07;;;;;;;;;;5135174;27;20998;-65
2022/08/08 06:41:18;;;;;;;13.43;7.70;;;;;;;;;;5135053;27;20565;-66
2022/08/08 06:43:45;;;;;;;8.83;7.53;;;;;;;;;;5135235;27;20477;-65
2022/08/08 06:46:12;;;;;;;12.93;6.67;;;;;;;;;;5134811;27;20442;-65
2022/08/08 06:48:41;;;;;;;8.27;6.80;;;;;;;;;;5134458;27;20446;-65
2022/08/08 06:51:08;;;;;;;13.90;7.13;;;;;;;;;;5134706;27;20439;-65
2022/08/08 06:53:37;;;;;;;9.60;7.50;;;;;;;;;;5134463;27;20533;-65
2022/08/08 06:56:04;;;;;;;8.43;7.30;;;;;;;;;;5135155;27;20524;-65
2022/08/08 06:58:31;;;;;;;8.10;7.30;;;;;;;;;;5134903;27;20859;-64
2022/08/08 07:01:00;;;;;;;8.73;6.90;;;;;;;;;;5134479;27;20556;-65
2022/08/08 07:03:32;;;;;;;10.30;7.33;;;;;;;;;;5134681;27;20848;-66
2022/08/08 07:06:01;;;;;;;7.50;6.80;;;;;;;;;;5134793;27;20818;-65
2022/08/08 07:08:30;;;;;;;10.47;7.07;;;;;;;;;;5134545;27;20435;-64
2022/08/08 07:10:59;;;;;;;9.90;6.80;;;;;;;;;;5135095;27;20452;-65
2022/08/08 07:13:33;;;;;;;8.40;7.10;;;;;;;;;;5134515;27;20438;-65
2022/08/08 07:16:03;;;;;;;11.83;6.20;;;;;;;;;;5134015;27;20561;-65
2022/08/08 07:18:34;;;;;;;11.80;8.10;;;;;;;;;;5134430;27;20473;-65
2022/08/08 07:21:04;;;;;;;16.20;6.90;;;;;;;;;;5134421;28;20552;-65
2022/08/08 07:23:36;;;;;;;8.83;6.97;;;;;;;;;;5134326;28;20437;-65
2022/08/08 07:26:04;;;;;;;10.00;6.80;;;;;;;;;;5134549;28;20419;-65
2022/08/08 07:28:32;;;;;;;6.93;6.23;;;;;;;;;;5134083;28;20529;-65
2022/08/08 07:30:59;;;;;;;8.10;6.03;;;;;;;;;;5134705;27;20449;-65
2022/08/08 07:33:27;;;;;;;8.97;6.50;;;;;;;;;;5138353;27;20442;-65
2022/08/08 07:35:56;;;;;;;12.10;6.83;;;;;;;;;;5138142;27;20979;-65
2022/08/08 07:38:27;;;;;;;9.67;6.47;;;;;;;;;;5138455;27;20522;-64
2022/08/08 07:40:57;;;;;;;7.73;6.53;;;;;;;;;;5138109;27;20473;-64
2022/08/08 07:43:24;;;;;;;8.93;8.00;;;;;;;;;;5139326;27;20612;-64
2022/08/08 07:45:52;;;;;;;9.50;6.70;;;;;;;;;;5138519;27;20442;-65
2022/08/08 07:48:19;;;;;;;9.33;5.80;;;;;;;;;;5138728;27;20864;-65
2022/08/08 07:50:47;;;;;;;8.23;6.17;;;;;;;;;;5138650;27;20448;-65
2022/08/08 07:53:18;;;;;;;6.63;6.03;;;;;;;;;;5138164;27;20529;-65
2022/08/08 07:55:48;;;;;;;8.63;6.47;;;;;;;;;;5138635;27;20505;-64
2022/08/08 07:58:19;;;;;;;9.43;5.47;;;;;;;;;;5138249;27;20438;-64
2022/08/08 08:00:50;;;;;;;5.87;5.17;;;;;;;;;;5138486;27;20859;-65
2022/08/08 08:03:21;;;;;;;6.97;6.37;;;;;;;;;;5137976;27;20806;-64
2022/08/08 08:05:50;;;;;;;6.20;5.60;;;;;;;;;;5138568;27;20433;-64
2022/08/08 08:08:18;;;;;;;8.30;5.33;;;;;;;;;;5137830;27;20548;-65
2022/08/08 08:10:47;;;;;;;8.50;6.50;;;;;;;;;;5137536;27;20444;-65
2022/08/08 08:13:22;;;;;;;7.63;4.73;;;;;;;;;;5137830;27;20529;-65
2022/08/08 08:15:50;;;;;;;8.07;5.10;;;;;;;;;;5138142;27;20553;-64
2022/08/08 08:18:19;;;;;;;5.97;5.47;;;;;;;;;;5137614;27;20444;-65
2022/08/08 08:20:46;;;;;;;7.03;4.67;;;;;;;;;;5137626;27;20470;-65
2022/08/08 08:23:13;;;;;;;5.50;5.00;;;;;;;;;;5137507;27;20860;-65
2022/08/08 08:25:40;;;;;;;7.40;4.43;;;;;;;;;;5137878;27;20792;-65
2022/08/08 08:28:09;;;;;;;5.60;4.93;;;;;;;;;;5137443;27;20530;-65
2022/08/08 08:30:36;;;;;;;6.80;5.20;;;;;;;;;;5137233;27;20442;-65
2022/08/08 08:33:03;;;;;;;8.40;4.00;;;;;;;;;;5137311;27;20435;-65
2022/08/08 08:35:30;;;;;;;5.50;4.07;;;;;;;;;;5137161;27;20443;-64
2022/08/08 08:37:58;;;;;;;3.70;3.40;;;;;;;;;;5137639;27;20439;-65
2022/08/08 08:40:25;;;;;;;4.27;3.87;;;;;;;;;;5137083;27;20446;-64
2022/08/08 08:42:53;;;;;;;4.83;3.57;;;;;;;;;;5136494;27;20475;-65
2022/08/08 08:45:22;;;;;;;8.13;4.10;;;;;;;;;;5137003;27;20452;-65
2022/08/08 08:47:50;;;;;;;5.10;4.30;;;;;;;;;;5136792;27;20522;-65
2022/08/08 08:50:17;;;;;;;4.27;3.90;;;;;;;;;;5136850;27;21033;-65
2022/08/08 08:52:46;;;;;;;9.17;4.83;;;;;;;;;;5137065;27;20526;-65
2022/08/08 08:55:15;;;;;;;7.43;3.97;;;;;;;;;;5137014;27;20470;-66
2022/08/08 08:57:43;;;;;;;7.23;4.23;;;;;;;;;;5137431;27;20426;-65
2022/08/08 09:00:11;;;;;;;5.30;4.30;;;;;;;;;;5137021;27;20531;-65
2022/08/08 09:02:40;;;;;;;4.23;3.80;;;;;;;;;;5136710;27;20479;-65
2022/08/08 09:05:08;;;;;;;7.37;4.40;;;;;;;;;;5136809;27;20473;-65
2022/08/08 09:07:36;;;;;;;5.03;4.60;;;;;;;;;;5136888;27;20499;-64
2022/08/08 09:10:04;;;;;;;4.50;4.10;;;;;;;;;;5136724;27;20936;-65
2022/08/08 09:12:33;;;;;;;4.77;4.37;;;;;;;;;;5136550;27;20523;-65
2022/08/08 09:15:00;;;;;;;4.80;4.40;;;;;;;;;;5136428;27;20566;-65
2022/08/08 09:17:28;;;;;;;4.73;4.33;;;;;;;;;;5136165;27;20447;-65
2022/08/08 09:19:58;;;;;;;6.03;4.50;;;;;;;;;;5136502;27;20441;-65
2022/08/08 09:22:25;;;;;;;7.60;4.53;;;;;;;;;;5136287;27;20476;-65
2022/08/08 09:24:53;;;;;;;4.63;4.10;;;;;;;;;;5136506;27;20442;-65
2022/08/08 09:27:21;;;;;;;4.90;4.40;;;;;;;;;;5136011;27;20532;-65
2022/08/08 09:29:51;;;;;;;4.40;4.00;;;;;;;;;;5136299;27;20523;-65
2022/08/08 09:32:26;;;;;;;6.43;4.50;;;;;;;;;;5136750;27;20917;-66
2022/08/08 09:34:55;;;;;;;6.10;5.00;;;;;;;;;;5136429;27;20457;-65
2022/08/08 09:37:28;;;;;;;5.57;4.33;;;;;;;;;;5136123;27;20436;-66
2022/08/08 09:40:04;;;;;;;4.53;4.13;;;;;;;;;;5136176;27;20510;-65
2022/08/08 09:42:33;;;;;;;6.03;4.30;;;;;;;;;;5135766;27;20548;-65
2022/08/08 09:45:04;;;;;;;4.57;4.10;;;;;;;;;;5136187;27;20447;-65
2022/08/08 09:47:32;;;;;;;5.63;4.37;;;;;;;;;;5135701;27;21001;-65
2022/08/08 09:50:00;;;;;;;7.40;5.00;;;;;;;;;;5136386;27;20446;-65
2022/08/08 09:52:30;;;;;;;4.60;4.10;;;;;;;;;;5136183;27;20533;-65
2022/08/08 09:54:58;;;;;;;6.10;4.97;;;;;;;;;;5134816;27;20532;-65
2022/08/08 09:57:32;;;;;;;7.40;4.40;;;;;;;;;;5135571;27;20973;-65
2022/08/08 10:00:00;;;;;;;6.43;4.60;;;;;;;;;;5135529;27;20432;-65
2022/08/08 10:02:33;;;;;;;7.40;4.27;;;;;;;;;;5135976;27;20507;-65
2022/08/08 10:05:03;;;;;;;5.20;4.27;;;;;;;;;;5135667;27;20834;-65
2022/08/08 10:07:32;;;;;;;4.77;4.37;;;;;;;;;;5135350;27;20442;-65
2022/08/08 10:09:59;;;;;;;5.80;4.70;;;;;;;;;;5135552;27;20481;-65
2022/08/08 10:12:33;;;;;;;5.33;4.37;;;;;;;;;;5135378;27;20781;-65
2022/08/08 10:15:01;;;;;;;4.83;4.07;;;;;;;;;;5135009;27;20554;-65
2022/08/08 10:17:28;;;;;;;9.90;4.57;;;;;;;;;;5135440;27;20477;-65
2022/08/08 10:19:59;;;;;;;5.53;4.57;;;;;;;;;;5135025;27;20937;-65
2022/08/08 10:22:27;;;;;;;8.10;4.30;;;;;;;;;;5134972;27;20568;-65
2022/08/08 10:25:00;;;;;;;5.43;4.20;;;;;;;;;;5135231;27;20438;-65
2022/08/08 10:27:29;;;;;;;4.17;3.83;;;;;;;;;;5135376;27;20426;-65
2022/08/08 10:30:00;;;;;;;7.93;4.23;;;;;;;;;;5135092;27;20541;-65
2022/08/08 10:32:39;;;;;;;6.53;4.60;;;;;;;;;;5135023;27;20935;-65
2022/08/08 10:35:08;;;;;;;4.90;4.50;;;;;;;;;;5135156;27;20438;-65
2022/08/08 10:37:35;;;;;;;5.60;4.70;;;;;;;;;;5135824;27;20446;-65
2022/08/08 10:40:14;;;;;;;6.80;3.83;;;;;;;;;;5134944;27;20438;-65
2022/08/08 10:42:42;;;;;;;6.50;4.00;;;;;;;;;;5135110;27;20549;-65
2022/08/08 10:45:10;;;;;;;4.40;4.00;;;;;;;;;;5134620;27;20472;-65
2022/08/08 10:47:38;;;;;;;5.43;4.93;;;;;;;;;;5135070;27;20466;-65
2022/08/08 10:50:06;;;;;;;6.03;4.47;;;;;;;;;;5134470;27;20525;-65
2022/08/08 10:52:34;;;;;;;8.30;4.00;;;;;;;;;;5134910;27;20794;-65
2022/08/08 10:55:02;;;;;;;4.50;3.77;;;;;;;;;;5134979;27;20536;-66
2022/08/08 10:57:31;;;;;;;5.20;3.80;;;;;;;;;;5134447;27;20441;-65
2022/08/08 10:59:58;;;;;;;6.87;4.30;;;;;;;;;;5134810;27;20468;-65
2022/08/08 11:02:26;;;;;;;4.03;3.73;;;;;;;;;;5134643;27;20469;-65
2022/08/08 11:04:54;;;;;;;8.20;4.77;;;;;;;;;;5134805;27;20469;-65
2022/08/08 11:07:25;;;;;;;4.50;4.10;;;;;;;;;;5134515;27;20529;-65
2022/08/08 11:09:52;;;;;;;5.50;4.50;;;;;;;;;;5134447;27;20533;-65
2022/08/08 11:12:20;;;;;;;4.20;3.77;;;;;;;;;;5134605;27;20441;-65
2022/08/08 11:14:52;;;;;;;4.67;4.20;;;;;;;;;;5134338;27;20517;-65
2022/08/08 11:17:23;;;;;;;5.13;4.60;;;;;;;;;;5134496;27;20483;-65
2022/08/08 11:19:52;;;;;;;4.20;3.87;;;;;;;;;;5134477;27;20445;-65
2022/08/08 11:22:22;;;;;;;5.47;4.17;;;;;;;;;;5134415;28;20470;-65
2022/08/08 11:24:49;;;;;;;5.10;4.60;;;;;;;;;;5134361;28;20474;-65
2022/08/08 11:27:17;;;;;;;5.87;4.50;;;;;;;;;;5134482;28;20521;-65
2022/08/08 11:29:45;;;;;;;5.57;4.17;;;;;;;;;;5134370;28;20480;-65
2022/08/08 11:32:14;;;;;;;4.90;4.40;;;;;;;;;;5134372;28;20532;-65
2022/08/08 11:34:41;;;;;;;4.80;4.30;;;;;;;;;;5134199;28;20431;-65
2022/08/08 11:37:09;;;;;;;4.47;3.90;;;;;;;;;;5134796;28;20492;-65
2022/08/08 11:39:36;;;;;;;7.73;4.23;;;;;;;;;;5133842;28;20438;-65
2022/08/08 11:42:04;;;;;;;4.20;3.90;;;;;;;;;;5133848;28;20980;-65
2022/08/08 11:44:32;;;;;;;3.80;3.50;;;;;;;;;;5134035;28;20448;-65
2022/08/08 11:47:00;;;;;;;4.77;3.83;;;;;;;;;;5134679;28;20439;-64
2022/08/08 11:49:29;;;;;;;4.60;4.17;;;;;;;;;;5134847;28;20516;-66
2022/08/08 11:51:57;;;;;;;4.03;3.43;;;;;;;;;;5134465;27;20469;-65
2022/08/08 11:54:31;;;;;;;5.77;3.33;;;;;;;;;;5133737;28;20478;-65
2022/08/08 11:57:09;;;;;;;4.07;3.63;;;;;;;;;;5133797;28;20440;-64
2022/08/08 11:59:37;;;;;;;4.43;4.03;;;;;;;;;;5133756;28;20430;-65
2022/08/08 12:02:05;;;;;;;5.80;4.60;;;;;;;;;;5133997;28;20531;-65
2022/08/08 12:04:33;;;;;;;5.10;4.60;;;;;;;;;;5133930;28;20534;-65
2022/08/08 12:07:04;;;;;;;5.67;4.17;;;;;;;;;;5133937;28;20439;-65
2022/08/08 12:09:32;;;;;;;4.50;4.10;;;;;;;;;;5134241;28;20538;-66
2022/08/08 12:11:59;;;;;;;5.90;4.90;;;;;;;;;;5133601;28;20480;-65
2022/08/08 12:14:27;;;;;;;4.80;4.40;;;;;;;;;;5133308;28;20473;-66
2022/08/08 12:16:55;;;;;;;7.00;4.60;;;;;;;;;;5133851;27;20441;-66
2022/08/08 12:19:24;;;;;;;6.80;4.53;;;;;;;;;;5137307;27;20439;-65
2022/08/08 12:21:53;;;;;;;5.57;4.97;;;;;;;;;;5137637;27;20471;-65
2022/08/08 12:24:22;;;;;;;4.83;4.30;;;;;;;;;;5137657;27;20889;-65
2022/08/08 12:26:51;;;;;;;4.40;4.00;;;;;;;;;;5137450;27;20479;-65
2022/08/08 12:29:19;;;;;;;4.47;4.17;;;;;;;;;;5137465;27;20497;-65
2022/08/08 12:31:47;;;;;;;5.20;4.50;;;;;;;;;;5137544;27;20442;-65
2022/08/08 12:34:15;;;;;;;4.20;3.80;;;;;;;;;;5137604;27;20438;-65
2022/08/08 12:36:43;;;;;;;4.90;3.87;;;;;;;;;;5137251;27;20479;-65
2022/08/08 12:39:12;;;;;;;8.03;4.43;;;;;;;;;;5137071;27;21003;-65
2022/08/08 12:41:39;;;;;;;3.90;3.50;;;;;;;;;;5137090;27;20870;-65
2022/08/08 12:44:07;;;;;;;4.10;3.60;;;;;;;;;;5137156;27;20781;-65
2022/08/08 12:46:34;;;;;;;4.83;4.43;;;;;;;;;;5137298;27;20451;-64
2022/08/08 12:49:02;;;;;;;4.40;4.00;;;;;;;;;;5137103;27;20443;-65
2022/08/08 12:51:40;;;;;;;3.93;3.63;;;;;;;;;;5137115;27;20442;-65
2022/08/08 12:54:08;;;;;;;4.20;3.90;;;;;;;;;;5137179;27;20492;-69
2022/08/08 12:56:37;;;;;;;4.17;3.87;;;;;;;;;;5136862;27;20546;-64
2022/08/08 12:59:15;;;;;;;5.90;4.17;;;;;;;;;;5136661;27;20442;-64
2022/08/08 13:01:42;;;;;;;4.07;3.73;;;;;;;;;;5136588;27;20927;-65
2022/08/08 13:04:14;;;;;;;4.73;4.13;;;;;;;;;;5137188;27;20835;-65
2022/08/08 13:06:52;;;;;;;5.03;4.10;;;;;;;;;;5136783;27;20412;-65
2022/08/08 13:09:29;;;;;;;3.90;3.47;;;;;;;;;;5137218;27;20440;-65
2022/08/08 13:11:57;;;;;;;5.43;3.70;;;;;;;;;;5136879;27;20464;-65
2022/08/08 13:14:36;;;;;;;3.93;3.50;;;;;;;;;;5136918;27;20499;-65
2022/08/08 13:17:04;;;;;;;4.13;3.50;;;;;;;;;;5135701;27;20485;-65
2022/08/08 13:19:31;;;;;;;3.63;3.23;;;;;;;;;;5136779;27;20442;-65
2022/08/08 13:21:58;;;;;;;5.30;3.90;;;;;;;;;;5135991;27;20533;-65
2022/08/08 13:24:26;;;;;;;4.63;3.50;;;;;;;;;;5136456;27;20501;-65
2022/08/08 13:27:05;;;;;;;5.30;4.17;;;;;;;;;;5136226;27;20934;-65
2022/08/08 13:29:32;;;;;;;5.73;3.57;;;;;;;;;;5136610;27;20450;-65
2022/08/08 13:32:02;;;;;;;4.13;3.47;;;;;;;;;;5135981;27;20450;-65
2022/08/08 13:34:29;;;;;;;6.73;3.70;;;;;;;;;;5136547;27;20422;-65
2022/08/08 13:36:57;;;;;;;6.80;4.10;;;;;;;;;;5136186;27;20521;-65
2022/08/08 13:39:24;;;;;;;6.50;3.70;;;;;;;;;;5137065;27;20449;-65
2022/08/08 13:41:54;;;;;;;6.87;3.70;;;;;;;;;;5136060;27;20553;-65
2022/08/08 13:44:22;;;;;;;3.93;3.63;;;;;;;;;;5136489;27;20515;-64
2022/08/08 13:46:54;;;;;;;3.20;2.97;;;;;;;;;;5136123;27;20443;-65
2022/08/08 13:49:22;;;;;;;3.67;3.37;;;;;;;;;;5135979;27;20432;-64
2022/08/08 13:51:53;;;;;;;3.37;3.07;;;;;;;;;;5135881;27;20786;-65
2022/08/08 13:54:21;;;;;;;4.67;3.20;;;;;;;;;;5136027;27;20451;-65
2022/08/08 13:56:59;;;;;;;3.93;3.63;;;;;;;;;;5135700;27;20509;-64
2022/08/08 13:59:31;;;;;;;3.90;3.30;;;;;;;;;;5136230;27;20430;-65
2022/08/08 14:01:58;;;;;;;3.07;2.87;;;;;;;;;;5135252;27;20445;-65
2022/08/08 14:04:26;;;;;;;4.73;3.00;;;;;;;;;;5135578;27;20562;-65
2022/08/08 14:07:02;;;;;;;4.30;2.80;;;;;;;;;;5135555;27;20439;-64
2022/08/08 14:09:33;;;;;;;6.13;3.60;;;;;;;;;;5135642;27;20439;-65
2022/08/08 14:12:01;;;;;;;4.50;3.63;;;;;;;;;;5135106;27;20531;-65
2022/08/08 14:14:40;;;;;;;4.33;3.07;;;;;;;;;;5135331;27;20499;-65
2022/08/08 14:17:07;;;;;;;5.10;3.33;;;;;;;;;;5135569;27;20445;-65
2022/08/08 14:19:41;;;;;;;4.67;3.73;;;;;;;;;;5135038;27;20474;-65
2022/08/08 14:22:18;;;;;;;6.03;2.93;;;;;;;;;;5134949;27;20450;-65
2022/08/08 14:24:53;;;;;;;4.60;3.00;;;;;;;;;;5134956;27;20948;-65
2022/08/08 14:27:22;;;;;;;4.50;3.10;;;;;;;;;;5134813;27;20458;-65
2022/08/08 14:29:55;;;;;;;6.20;3.17;;;;;;;;;;5135422;27;20489;-65
2022/08/08 14:32:22;;;;;;;3.30;3.00;;;;;;;;;;5135085;27;20950;-65
2022/08/08 14:34:52;;;;;;;3.90;3.53;;;;;;;;;;5135026;27;20474;-65
2022/08/08 14:37:20;;;;;;;4.60;3.23;;;;;;;;;;5135291;27;20449;-65
2022/08/08 14:39:51;;;;;;;4.30;3.47;;;;;;;;;;5135059;27;20448;-65
2022/08/08 14:42:28;;;;;;;4.30;3.20;;;;;;;;;;5134083;27;20516;-64
2022/08/08 14:45:02;;;;;;;3.43;3.13;;;;;;;;;;5134849;27;20470;-65
2022/08/08 14:47:29;;;;;;;4.73;3.63;;;;;;;;;;5134560;27;20417;-65
2022/08/08 14:50:04;;;;;;;5.50;3.20;;;;;;;;;;5134910;27;20495;-64
2022/08/08 14:52:39;;;;;;;5.03;4.10;;;;;;;;;;5134655;27;20771;-64
2022/08/08 14:55:10;;;;;;;3.50;3.20;;;;;;;;;;5134566;27;20500;-64
2022/08/08 14:57:37;;;;;;;3.77;3.30;;;;;;;;;;5134619;27;20451;-65
2022/08/08 15:00:07;;;;;;;4.60;3.30;;;;;;;;;;5134568;27;20425;-64
2022/08/08 15:02:35;;;;;;;4.03;3.63;;;;;;;;;;5134843;27;20420;-64
2022/08/08 15:05:02;;;;;;;4.00;3.10;;;;;;;;;;5134360;27;20768;-64
2022/08/08 15:07:30;;;;;;;4.73;3.33;;;;;;;;;;5134428;27;20474;-65
2022/08/08 15:09:57;;;;;;;3.90;3.43;;;;;;;;;;5134611;27;20558;-65